sensor_id;sensor_type;location;lat;lon;timestamp;P1;durP1;ratioP1;P2;durP2;ratioP2
48975;SDS011;34791;52.752;8.346;2023-08-30T00:00:09;14.97;;;8.70;;
48975;SDS011;34791;52.752;8.346;2023-08-30T00:02:35;14.27;;;8.80;;
48975;SDS011;34791;52.752;8.346;2023-08-30T00:05:02;12.50;;;8.47;;
48975;SDS011;34791;52.752;8.346;2023-08-30T00:07:27;14.20;;;8.57;;
48975;SDS011;34791;52.752;8.346;2023-08-30T00:09:53;12.57;;;8.63;;
48975;SDS011;34791;52.752;8.346;2023-08-30T00:12:18;11.30;;;8.20;;
48975;SDS011;34791;52.752;8.346;2023-08-30T00:14:43;11.40;;;8.17;;
48975;SDS011;34791;52.752;8.346;2023-08-30T00:17:08;13.43;;;8.07;;
48975;SDS011;34791;52.752;8.346;2023-08-30T00:19:34;10.33;;;7.53;;
48975;SDS011;34791;52.752;8.346;2023-08-30T00:21:59;12.13;;;7.33;;
48975;SDS011;34791;52.752;8.346;2023-08-30T00:24:24;10.63;;;6.73;;
48975;SDS011;34791;52.752;8.346;2023-08-30T00:26:50;11.67;;;6.90;;
48975;SDS011;34791;52.752;8.346;2023-08-30T00:29:15;11.83;;;7.17;;
48975;SDS011;34791;52.752;8.346;2023-08-30T00:31:40;10.83;;;6.10;;
48975;SDS011;34791;52.752;8.346;2023-08-30T00:34:05;12.23;;;5.70;;
48975;SDS011;34791;52.752;8.346;2023-08-30T00:36:31;8.80;;;6.00;;
48975;SDS011;34791;52.752;8.346;2023-08-30T00:38:56;10.07;;;6.20;;
48975;SDS011;34791;52.752;8.346;2023-08-30T00:41:21;8.90;;;6.30;;
48975;SDS011;34791;52.752;8.346;2023-08-30T00:43:46;10.00;;;5.93;;
48975;SDS011;34791;52.752;8.346;2023-08-30T00:46:12;10.43;;;6.83;;
48975;SDS011;34791;52.752;8.346;2023-08-30T00:48:37;12.73;;;8.73;;
48975;SDS011;34791;52.752;8.346;2023-08-30T00:51:03;16.13;;;10.60;;
48975;SDS011;34791;52.752;8.346;2023-08-30T00:53:28;15.40;;;9.93;;
48975;SDS011;34791;52.752;8.346;2023-08-30T00:55:53;16.07;;;10.17;;
48975;SDS011;34791;52.752;8.346;2023-08-30T00:58:19;14.27;;;9.33;;
48975;SDS011;34791;52.752;8.346;2023-08-30T01:03:47;13.87;;;10.10;;
48975;SDS011;34791;52.752;8.346;2023-08-30T01:06:12;15.63;;;10.90;;
48975;SDS011;34791;52.752;8.346;2023-08-30T01:08:38;14.43;;;10.37;;
48975;SDS011;34791;52.752;8.346;2023-08-30T01:13:46;14.77;;;9.43;;
48975;SDS011;34791;52.752;8.346;2023-08-30T01:16:12;16.43;;;9.37;;
48975;SDS011;34791;52.752;8.346;2023-08-30T01:18:37;11.87;;;8.83;;
48975;SDS011;34791;52.752;8.346;2023-08-30T01:21:04;11.80;;;8.57;;
48975;SDS011;34791;52.752;8.346;2023-08-30T01:28:42;12.43;;;8.33;;
48975;SDS011;34791;52.752;8.346;2023-08-30T01:31:08;13.57;;;8.87;;
48975;SDS011;34791;52.752;8.346;2023-08-30T01:33:34;14.40;;;8.93;;
48975;SDS011;34791;52.752;8.346;2023-08-30T01:36:01;12.07;;;9.07;;
48975;SDS011;34791;52.752;8.346;2023-08-30T01:38:28;13.60;;;9.00;;
48975;SDS011;34791;52.752;8.346;2023-08-30T01:40:55;14.00;;;9.60;;
48975;SDS011;34791;52.752;8.346;2023-08-30T01:43:21;16.43;;;10.67;;
48975;SDS011;34791;52.752;8.346;2023-08-30T01:45:47;15.57;;;10.70;;
48975;SDS011;34791;52.752;8.346;2023-08-30T01:48:13;20.40;;;11.37;;
48975;SDS011;34791;52.752;8.346;2023-08-30T01:50:39;16.27;;;11.27;;
48975;SDS011;34791;52.752;8.346;2023-08-30T01:53:06;20.50;;;11.30;;
48975;SDS011;34791;52.752;8.346;2023-08-30T01:55:32;18.40;;;12.37;;
48975;SDS011;34791;52.752;8.346;2023-08-30T01:57:58;19.80;;;12.10;;
48975;SDS011;34791;52.752;8.346;2023-08-30T02:00:23;18.60;;;13.13;;
48975;SDS011;34791;52.752;8.346;2023-08-30T02:02:48;17.63;;;12.33;;
48975;SDS011;34791;52.752;8.346;2023-08-30T02:05:13;18.83;;;13.20;;
48975;SDS011;34791;52.752;8.346;2023-08-30T02:07:54;18.77;;;13.17;;
48975;SDS011;34791;52.752;8.346;2023-08-30T02:10:24;18.75;;;12.93;;
48975;SDS011;34791;52.752;8.346;2023-08-30T02:12:51;21.57;;;13.73;;
48975;SDS011;34791;52.752;8.346;2023-08-30T02:15:18;22.27;;;14.93;;
48975;SDS011;34791;52.752;8.346;2023-08-30T02:17:44;22.77;;;14.97;;
48975;SDS011;34791;52.752;8.346;2023-08-30T02:20:09;25.10;;;15.77;;
48975;SDS011;34791;52.752;8.346;2023-08-30T02:22:35;23.27;;;15.47;;
48975;SDS011;34791;52.752;8.346;2023-08-30T02:25:00;25.77;;;16.03;;
48975;SDS011;34791;52.752;8.346;2023-08-30T02:27:30;22.03;;;15.87;;
48975;SDS011;34791;52.752;8.346;2023-08-30T02:29:55;23.27;;;15.50;;
48975;SDS011;34791;52.752;8.346;2023-08-30T02:32:21;24.90;;;15.13;;
48975;SDS011;34791;52.752;8.346;2023-08-30T02:34:49;22.60;;;15.63;;
48975;SDS011;34791;52.752;8.346;2023-08-30T02:37:14;20.23;;;14.13;;
48975;SDS011;34791;52.752;8.346;2023-08-30T02:39:40;19.57;;;13.87;;
48975;SDS011;34791;52.752;8.346;2023-08-30T02:42:05;21.80;;;14.17;;
48975;SDS011;34791;52.752;8.346;2023-08-30T02:44:30;19.00;;;13.53;;
48975;SDS011;34791;52.752;8.346;2023-08-30T02:46:55;21.83;;;13.80;;
48975;SDS011;34791;52.752;8.346;2023-08-30T02:49:21;19.97;;;14.50;;
48975;SDS011;34791;52.752;8.346;2023-08-30T02:51:46;20.10;;;13.70;;
48975;SDS011;34791;52.752;8.346;2023-08-30T02:54:11;20.10;;;14.13;;
48975;SDS011;34791;52.752;8.346;2023-08-30T02:56:38;19.27;;;14.20;;
48975;SDS011;34791;52.752;8.346;2023-08-30T02:59:03;21.67;;;14.73;;
48975;SDS011;34791;52.752;8.346;2023-08-30T03:01:28;22.77;;;15.53;;
48975;SDS011;34791;52.752;8.346;2023-08-30T03:03:54;23.37;;;15.17;;
48975;SDS011;34791;52.752;8.346;2023-08-30T03:06:19;22.83;;;15.70;;
48975;SDS011;34791;52.752;8.346;2023-08-30T03:08:44;24.07;;;16.40;;
48975;SDS011;34791;52.752;8.346;2023-08-30T03:11:12;23.67;;;16.37;;
48975;SDS011;34791;52.752;8.346;2023-08-30T03:13:38;24.93;;;17.13;;
48975;SDS011;34791;52.752;8.346;2023-08-30T03:16:13;25.53;;;16.33;;
48975;SDS011;34791;52.752;8.346;2023-08-30T03:18:39;27.23;;;16.40;;
48975;SDS011;34791;52.752;8.346;2023-08-30T03:21:04;23.60;;;16.07;;
48975;SDS011;34791;52.752;8.346;2023-08-30T03:23:30;26.57;;;17.23;;
48975;SDS011;34791;52.752;8.346;2023-08-30T03:25:56;26.87;;;18.43;;
48975;SDS011;34791;52.752;8.346;2023-08-30T03:28:21;30.83;;;18.40;;
48975;SDS011;34791;52.752;8.346;2023-08-30T03:30:47;34.07;;;20.40;;
48975;SDS011;34791;52.752;8.346;2023-08-30T03:33:12;33.73;;;20.50;;
48975;SDS011;34791;52.752;8.346;2023-08-30T03:35:38;34.17;;;20.60;;
48975;SDS011;34791;52.752;8.346;2023-08-30T03:38:03;32.57;;;20.33;;
48975;SDS011;34791;52.752;8.346;2023-08-30T03:40:29;35.33;;;20.90;;
48975;SDS011;34791;52.752;8.346;2023-08-30T03:42:54;36.43;;;21.87;;
48975;SDS011;34791;52.752;8.346;2023-08-30T03:45:20;38.97;;;21.53;;
48975;SDS011;34791;52.752;8.346;2023-08-30T03:47:45;35.53;;;21.27;;
48975;SDS011;34791;52.752;8.346;2023-08-30T03:50:10;32.20;;;20.10;;
48975;SDS011;34791;52.752;8.346;2023-08-30T03:52:35;30.67;;;19.57;;
48975;SDS011;34791;52.752;8.346;2023-08-30T03:55:01;34.30;;;20.07;;
48975;SDS011;34791;52.752;8.346;2023-08-30T03:57:26;36.70;;;21.17;;
48975;SDS011;34791;52.752;8.346;2023-08-30T03:59:51;41.73;;;22.80;;
48975;SDS011;34791;52.752;8.346;2023-08-30T04:02:16;38.57;;;22.13;;
48975;SDS011;34791;52.752;8.346;2023-08-30T04:04:42;39.97;;;22.57;;
48975;SDS011;34791;52.752;8.346;2023-08-30T04:07:07;38.43;;;22.53;;
48975;SDS011;34791;52.752;8.346;2023-08-30T04:09:32;37.47;;;21.33;;
48975;SDS011;34791;52.752;8.346;2023-08-30T04:11:58;34.97;;;21.07;;
48975;SDS011;34791;52.752;8.346;2023-08-30T04:14:24;33.53;;;19.93;;
48975;SDS011;34791;52.752;8.346;2023-08-30T04:16:49;34.23;;;19.53;;
48975;SDS011;34791;52.752;8.346;2023-08-30T04:19:14;32.70;;;19.50;;
48975;SDS011;34791;52.752;8.346;2023-08-30T04:21:40;43.37;;;22.43;;
48975;SDS011;34791;52.752;8.346;2023-08-30T04:24:05;42.77;;;23.63;;
48975;SDS011;34791;52.752;8.346;2023-08-30T04:26:30;52.03;;;25.27;;
48975;SDS011;34791;52.752;8.346;2023-08-30T04:28:56;50.27;;;25.77;;
48975;SDS011;34791;52.752;8.346;2023-08-30T04:31:21;58.33;;;28.20;;
48975;SDS011;34791;52.752;8.346;2023-08-30T04:33:46;68.40;;;29.87;;
48975;SDS011;34791;52.752;8.346;2023-08-30T04:36:11;62.67;;;29.30;;
48975;SDS011;34791;52.752;8.346;2023-08-30T04:38:37;64.97;;;30.27;;
48975;SDS011;34791;52.752;8.346;2023-08-30T04:41:02;66.57;;;30.20;;
48975;SDS011;34791;52.752;8.346;2023-08-30T04:43:27;75.73;;;31.87;;
48975;SDS011;34791;52.752;8.346;2023-08-30T04:45:53;73.70;;;31.70;;
48975;SDS011;34791;52.752;8.346;2023-08-30T04:48:18;70.83;;;32.17;;
48975;SDS011;34791;52.752;8.346;2023-08-30T04:50:44;71.40;;;30.63;;
48975;SDS011;34791;52.752;8.346;2023-08-30T04:53:09;66.03;;;29.63;;
48975;SDS011;34791;52.752;8.346;2023-08-30T04:55:34;65.03;;;28.67;;
48975;SDS011;34791;52.752;8.346;2023-08-30T04:58:00;73.40;;;30.40;;
48975;SDS011;34791;52.752;8.346;2023-08-30T05:00:25;71.57;;;30.73;;
48975;SDS011;34791;52.752;8.346;2023-08-30T05:02:50;77.43;;;32.80;;
48975;SDS011;34791;52.752;8.346;2023-08-30T05:05:16;75.50;;;32.67;;
48975;SDS011;34791;52.752;8.346;2023-08-30T05:07:41;84.07;;;34.03;;
48975;SDS011;34791;52.752;8.346;2023-08-30T05:10:06;78.57;;;34.57;;
48975;SDS011;34791;52.752;8.346;2023-08-30T05:12:35;76.47;;;33.37;;
48975;SDS011;34791;52.752;8.346;2023-08-30T05:15:00;71.43;;;32.87;;
48975;SDS011;34791;52.752;8.346;2023-08-30T05:17:26;84.20;;;34.50;;
48975;SDS011;34791;52.752;8.346;2023-08-30T05:19:53;70.93;;;31.80;;
48975;SDS011;34791;52.752;8.346;2023-08-30T05:22:18;73.00;;;31.80;;
48975;SDS011;34791;52.752;8.346;2023-08-30T05:24:43;67.53;;;31.07;;
48975;SDS011;34791;52.752;8.346;2023-08-30T05:27:08;61.57;;;30.07;;
48975;SDS011;34791;52.752;8.346;2023-08-30T05:29:34;58.13;;;28.73;;
48975;SDS011;34791;52.752;8.346;2023-08-30T05:31:59;57.37;;;27.90;;
48975;SDS011;34791;52.752;8.346;2023-08-30T05:34:24;56.70;;;29.23;;
48975;SDS011;34791;52.752;8.346;2023-08-30T05:36:51;48.73;;;26.10;;
48975;SDS011;34791;52.752;8.346;2023-08-30T05:39:17;43.70;;;24.47;;
48975;SDS011;34791;52.752;8.346;2023-08-30T05:41:42;49.10;;;25.57;;
48975;SDS011;34791;52.752;8.346;2023-08-30T05:44:07;42.57;;;24.20;;
48975;SDS011;34791;52.752;8.346;2023-08-30T05:46:33;41.43;;;24.77;;
48975;SDS011;34791;52.752;8.346;2023-08-30T05:48:58;36.93;;;22.80;;
48975;SDS011;34791;52.752;8.346;2023-08-30T05:51:25;31.03;;;20.67;;
48975;SDS011;34791;52.752;8.346;2023-08-30T05:53:50;30.43;;;19.17;;
48975;SDS011;34791;52.752;8.346;2023-08-30T05:56:16;28.73;;;17.30;;
48975;SDS011;34791;52.752;8.346;2023-08-30T05:58:42;23.17;;;16.13;;
48975;SDS011;34791;52.752;8.346;2023-08-30T06:01:07;20.30;;;14.27;;
48975;SDS011;34791;52.752;8.346;2023-08-30T06:03:32;20.00;;;14.32;;
48975;SDS011;34791;52.752;8.346;2023-08-30T06:05:57;19.35;;;13.68;;
48975;SDS011;34791;52.752;8.346;2023-08-30T06:08:23;17.40;;;12.93;;
48975;SDS011;34791;52.752;8.346;2023-08-30T06:10:48;18.00;;;13.30;;
48975;SDS011;34791;52.752;8.346;2023-08-30T06:13:13;19.00;;;12.95;;
48975;SDS011;34791;52.752;8.346;2023-08-30T06:15:39;21.30;;;13.35;;
48975;SDS011;34791;52.752;8.346;2023-08-30T06:18:04;17.92;;;12.35;;
48975;SDS011;34791;52.752;8.346;2023-08-30T06:20:29;17.90;;;12.88;;
48975;SDS011;34791;52.752;8.346;2023-08-30T06:22:57;18.10;;;12.20;;
48975;SDS011;34791;52.752;8.346;2023-08-30T06:25:22;16.75;;;11.98;;
48975;SDS011;34791;52.752;8.346;2023-08-30T06:27:55;18.48;;;11.93;;
48975;SDS011;34791;52.752;8.346;2023-08-30T06:30:22;15.75;;;11.70;;
48975;SDS011;34791;52.752;8.346;2023-08-30T06:32:48;16.25;;;11.40;;
48975;SDS011;34791;52.752;8.346;2023-08-30T06:35:13;18.13;;;11.77;;
48975;SDS011;34791;52.752;8.346;2023-08-30T06:37:38;14.98;;;10.95;;
48975;SDS011;34791;52.752;8.346;2023-08-30T06:40:03;15.32;;;10.93;;
48975;SDS011;34791;52.752;8.346;2023-08-30T06:42:29;14.15;;;10.88;;
48975;SDS011;34791;52.752;8.346;2023-08-30T06:44:54;15.18;;;10.85;;
48975;SDS011;34791;52.752;8.346;2023-08-30T06:47:19;16.30;;;10.57;;
48975;SDS011;34791;52.752;8.346;2023-08-30T06:49:46;15.13;;;9.82;;
48975;SDS011;34791;52.752;8.346;2023-08-30T06:52:11;14.70;;;9.65;;
48975;SDS011;34791;52.752;8.346;2023-08-30T06:54:36;16.20;;;10.43;;
48975;SDS011;34791;52.752;8.346;2023-08-30T06:57:01;14.95;;;10.25;;
48975;SDS011;34791;52.752;8.346;2023-08-30T06:59:27;14.05;;;10.32;;
48975;SDS011;34791;52.752;8.346;2023-08-30T07:01:52;14.63;;;10.52;;
48975;SDS011;34791;52.752;8.346;2023-08-30T07:04:18;14.45;;;10.13;;
48975;SDS011;34791;52.752;8.346;2023-08-30T07:06:43;15.05;;;10.15;;
48975;SDS011;34791;52.752;8.346;2023-08-30T07:09:08;15.52;;;10.52;;
48975;SDS011;34791;52.752;8.346;2023-08-30T07:11:34;13.98;;;9.60;;
48975;SDS011;34791;52.752;8.346;2023-08-30T07:13:59;15.98;;;9.75;;
48975;SDS011;34791;52.752;8.346;2023-08-30T07:16:24;14.52;;;9.68;;
48975;SDS011;34791;52.752;8.346;2023-08-30T07:18:50;13.85;;;9.20;;
48975;SDS011;34791;52.752;8.346;2023-08-30T07:21:15;14.32;;;9.55;;
48975;SDS011;34791;52.752;8.346;2023-08-30T07:23:40;13.82;;;9.20;;
48975;SDS011;34791;52.752;8.346;2023-08-30T07:26:05;12.27;;;9.07;;
48975;SDS011;34791;52.752;8.346;2023-08-30T07:28:30;14.23;;;9.25;;
48975;SDS011;34791;52.752;8.346;2023-08-30T07:31:05;14.93;;;9.25;;
48975;SDS011;34791;52.752;8.346;2023-08-30T07:33:31;16.17;;;9.48;;
48975;SDS011;34791;52.752;8.346;2023-08-30T07:35:56;13.32;;;9.68;;
48975;SDS011;34791;52.752;8.346;2023-08-30T07:38:21;11.02;;;8.40;;
48975;SDS011;34791;52.752;8.346;2023-08-30T07:40:47;16.17;;;9.00;;
48975;SDS011;34791;52.752;8.346;2023-08-30T07:43:12;12.25;;;8.70;;
48975;SDS011;34791;52.752;8.346;2023-08-30T07:45:37;12.73;;;8.85;;
48975;SDS011;34791;52.752;8.346;2023-08-30T07:48:02;12.10;;;9.57;;
48975;SDS011;34791;52.752;8.346;2023-08-30T07:50:28;14.50;;;9.70;;
48975;SDS011;34791;52.752;8.346;2023-08-30T07:52:53;14.25;;;9.38;;
48975;SDS011;34791;52.752;8.346;2023-08-30T07:55:18;12.52;;;9.00;;
48975;SDS011;34791;52.752;8.346;2023-08-30T07:57:43;14.23;;;9.60;;
48975;SDS011;34791;52.752;8.346;2023-08-30T08:00:09;14.20;;;9.98;;
48975;SDS011;34791;52.752;8.346;2023-08-30T08:02:34;13.23;;;9.40;;
48975;SDS011;34791;52.752;8.346;2023-08-30T08:05:00;13.18;;;9.18;;
48975;SDS011;34791;52.752;8.346;2023-08-30T08:07:25;13.20;;;9.75;;
48975;SDS011;34791;52.752;8.346;2023-08-30T08:09:50;12.90;;;9.07;;
48975;SDS011;34791;52.752;8.346;2023-08-30T08:12:15;15.80;;;9.30;;
48975;SDS011;34791;52.752;8.346;2023-08-30T08:14:40;16.45;;;9.50;;
48975;SDS011;34791;52.752;8.346;2023-08-30T08:17:06;12.60;;;8.77;;
48975;SDS011;34791;52.752;8.346;2023-08-30T08:19:31;17.40;;;8.63;;
48975;SDS011;34791;52.752;8.346;2023-08-30T08:21:56;14.07;;;8.95;;
48975;SDS011;34791;52.752;8.346;2023-08-30T08:24:21;10.15;;;7.72;;
48975;SDS011;34791;52.752;8.346;2023-08-30T08:26:47;12.60;;;7.97;;
48975;SDS011;34791;52.752;8.346;2023-08-30T08:29:12;11.75;;;8.73;;
48975;SDS011;34791;52.752;8.346;2023-08-30T08:31:37;13.60;;;8.35;;
48975;SDS011;34791;52.752;8.346;2023-08-30T08:34:10;10.40;;;7.57;;
48975;SDS011;34791;52.752;8.346;2023-08-30T08:36:39;11.82;;;7.90;;
48975;SDS011;34791;52.752;8.346;2023-08-30T08:39:05;12.18;;;7.63;;
48975;SDS011;34791;52.752;8.346;2023-08-30T08:41:34;10.95;;;7.25;;
48975;SDS011;34791;52.752;8.346;2023-08-30T08:44:00;12.38;;;7.18;;
48975;SDS011;34791;52.752;8.346;2023-08-30T08:46:25;13.20;;;7.25;;
48975;SDS011;34791;52.752;8.346;2023-08-30T08:48:51;11.23;;;6.82;;
48975;SDS011;34791;52.752;8.346;2023-08-30T08:51:17;11.32;;;6.88;;
48975;SDS011;34791;52.752;8.346;2023-08-30T08:53:42;11.35;;;6.70;;
48975;SDS011;34791;52.752;8.346;2023-08-30T08:56:08;10.95;;;6.82;;
48975;SDS011;34791;52.752;8.346;2023-08-30T08:58:35;11.82;;;6.97;;
48975;SDS011;34791;52.752;8.346;2023-08-30T09:01:02;12.80;;;7.00;;
48975;SDS011;34791;52.752;8.346;2023-08-30T09:03:28;11.27;;;6.88;;
48975;SDS011;34791;52.752;8.346;2023-08-30T09:05:54;11.15;;;6.38;;
48975;SDS011;34791;52.752;8.346;2023-08-30T09:08:19;13.07;;;7.30;;
48975;SDS011;34791;52.752;8.346;2023-08-30T09:10:46;11.88;;;7.47;;
48975;SDS011;34791;52.752;8.346;2023-08-30T09:13:15;14.27;;;8.23;;
48975;SDS011;34791;52.752;8.346;2023-08-30T09:15:40;14.60;;;8.75;;
48975;SDS011;34791;52.752;8.346;2023-08-30T09:18:14;14.85;;;8.98;;
48975;SDS011;34791;52.752;8.346;2023-08-30T09:20:39;17.33;;;10.55;;
48975;SDS011;34791;52.752;8.346;2023-08-30T09:23:04;20.42;;;11.88;;
48975;SDS011;34791;52.752;8.346;2023-08-30T09:25:30;14.95;;;10.23;;
48975;SDS011;34791;52.752;8.346;2023-08-30T09:27:58;16.67;;;11.70;;
48975;SDS011;34791;52.752;8.346;2023-08-30T09:30:27;22.85;;;11.70;;
48975;SDS011;34791;52.752;8.346;2023-08-30T09:32:52;18.98;;;11.88;;
48975;SDS011;34791;52.752;8.346;2023-08-30T09:35:18;16.02;;;11.25;;
48975;SDS011;34791;52.752;8.346;2023-08-30T09:37:46;17.05;;;10.20;;
48975;SDS011;34791;52.752;8.346;2023-08-30T09:40:11;14.40;;;8.75;;
48975;SDS011;34791;52.752;8.346;2023-08-30T09:42:42;16.85;;;10.35;;
48975;SDS011;34791;52.752;8.346;2023-08-30T09:45:17;17.98;;;10.93;;
48975;SDS011;34791;52.752;8.346;2023-08-30T09:47:42;17.20;;;10.50;;
48975;SDS011;34791;52.752;8.346;2023-08-30T09:50:11;17.77;;;10.75;;
48975;SDS011;34791;52.752;8.346;2023-08-30T09:52:36;20.65;;;11.18;;
48975;SDS011;34791;52.752;8.346;2023-08-30T09:55:03;18.02;;;10.30;;
48975;SDS011;34791;52.752;8.346;2023-08-30T09:57:29;13.48;;;9.35;;
48975;SDS011;34791;52.752;8.346;2023-08-30T09:59:54;15.00;;;9.52;;
48975;SDS011;34791;52.752;8.346;2023-08-30T10:02:20;14.10;;;9.02;;
48975;SDS011;34791;52.752;8.346;2023-08-30T10:04:46;15.07;;;9.48;;
48975;SDS011;34791;52.752;8.346;2023-08-30T10:07:12;16.20;;;10.25;;
48975;SDS011;34791;52.752;8.346;2023-08-30T10:09:38;15.55;;;10.38;;
48975;SDS011;34791;52.752;8.346;2023-08-30T10:12:04;16.25;;;10.70;;
48975;SDS011;34791;52.752;8.346;2023-08-30T10:14:30;18.92;;;10.98;;
48975;SDS011;34791;52.752;8.346;2023-08-30T10:16:59;15.02;;;9.60;;
48975;SDS011;34791;52.752;8.346;2023-08-30T10:19:26;16.57;;;10.20;;
48975;SDS011;34791;52.752;8.346;2023-08-30T10:22:00;17.55;;;9.73;;
48975;SDS011;34791;52.752;8.346;2023-08-30T10:24:27;14.50;;;9.57;;
48975;SDS011;34791;52.752;8.346;2023-08-30T10:26:53;13.95;;;9.60;;
48975;SDS011;34791;52.752;8.346;2023-08-30T10:29:20;16.50;;;10.27;;
48975;SDS011;34791;52.752;8.346;2023-08-30T10:31:45;16.67;;;9.73;;
48975;SDS011;34791;52.752;8.346;2023-08-30T10:34:14;14.25;;;9.65;;
48975;SDS011;34791;52.752;8.346;2023-08-30T10:36:44;14.93;;;10.07;;
48975;SDS011;34791;52.752;8.346;2023-08-30T10:39:13;14.45;;;9.55;;
48975;SDS011;34791;52.752;8.346;2023-08-30T10:41:53;11.65;;;8.05;;
48975;SDS011;34791;52.752;8.346;2023-08-30T10:44:18;15.43;;;8.93;;
48975;SDS011;34791;52.752;8.346;2023-08-30T10:46:51;15.20;;;9.15;;
48975;SDS011;34791;52.752;8.346;2023-08-30T10:49:18;14.60;;;9.45;;
48975;SDS011;34791;52.752;8.346;2023-08-30T10:51:43;15.00;;;9.90;;
48975;SDS011;34791;52.752;8.346;2023-08-30T10:54:15;13.85;;;9.40;;
48975;SDS011;34791;52.752;8.346;2023-08-30T10:56:48;15.88;;;9.77;;
48975;SDS011;34791;52.752;8.346;2023-08-30T10:59:19;19.27;;;9.30;;
48975;SDS011;34791;52.752;8.346;2023-08-30T11:01:45;14.85;;;8.85;;
48975;SDS011;34791;52.752;8.346;2023-08-30T11:04:11;17.38;;;9.50;;
48975;SDS011;34791;52.752;8.346;2023-08-30T11:06:40;13.70;;;8.73;;
48975;SDS011;34791;52.752;8.346;2023-08-30T11:09:06;16.25;;;9.13;;
48975;SDS011;34791;52.752;8.346;2023-08-30T11:11:32;16.65;;;9.68;;
48975;SDS011;34791;52.752;8.346;2023-08-30T11:14:06;18.17;;;9.27;;
48975;SDS011;34791;52.752;8.346;2023-08-30T11:16:31;13.23;;;8.95;;
48975;SDS011;34791;52.752;8.346;2023-08-30T11:18:56;12.18;;;8.43;;
48975;SDS011;34791;52.752;8.346;2023-08-30T11:21:21;12.43;;;8.50;;
48975;SDS011;34791;52.752;8.346;2023-08-30T11:23:47;13.93;;;8.43;;
48975;SDS011;34791;52.752;8.346;2023-08-30T11:26:12;15.10;;;9.20;;
48975;SDS011;34791;52.752;8.346;2023-08-30T11:28:38;13.57;;;8.15;;
48975;SDS011;34791;52.752;8.346;2023-08-30T11:31:08;16.03;;;9.63;;
48975;SDS011;34791;52.752;8.346;2023-08-30T11:33:33;14.15;;;9.60;;
48975;SDS011;34791;52.752;8.346;2023-08-30T11:35:59;13.85;;;9.57;;
48975;SDS011;34791;52.752;8.346;2023-08-30T11:38:25;15.40;;;9.85;;
48975;SDS011;34791;52.752;8.346;2023-08-30T11:40:51;14.93;;;9.23;;
48975;SDS011;34791;52.752;8.346;2023-08-30T11:43:16;13.93;;;9.82;;
48975;SDS011;34791;52.752;8.346;2023-08-30T11:45:42;14.68;;;9.38;;
48975;SDS011;34791;52.752;8.346;2023-08-30T11:48:07;16.38;;;10.05;;
48975;SDS011;34791;52.752;8.346;2023-08-30T11:50:32;15.85;;;10.15;;
48975;SDS011;34791;52.752;8.346;2023-08-30T11:52:58;14.48;;;9.45;;
48975;SDS011;34791;52.752;8.346;2023-08-30T11:55:23;14.57;;;9.68;;
48975;SDS011;34791;52.752;8.346;2023-08-30T11:57:49;17.05;;;10.55;;
48975;SDS011;34791;52.752;8.346;2023-08-30T12:00:15;14.38;;;10.15;;
48975;SDS011;34791;52.752;8.346;2023-08-30T12:02:43;16.33;;;10.38;;
48975;SDS011;34791;52.752;8.346;2023-08-30T12:05:12;14.73;;;9.77;;
48975;SDS011;34791;52.752;8.346;2023-08-30T12:07:37;15.77;;;9.73;;
48975;SDS011;34791;52.752;8.346;2023-08-30T12:10:12;14.85;;;10.23;;
48975;SDS011;34791;52.752;8.346;2023-08-30T12:12:38;19.50;;;11.50;;
48975;SDS011;34791;52.752;8.346;2023-08-30T12:15:09;18.58;;;12.10;;
48975;SDS011;34791;52.752;8.346;2023-08-30T12:17:35;17.33;;;11.70;;
48975;SDS011;34791;52.752;8.346;2023-08-30T12:20:01;19.08;;;11.98;;
48975;SDS011;34791;52.752;8.346;2023-08-30T12:25:03;17.38;;;11.13;;
48975;SDS011;34791;52.752;8.346;2023-08-30T12:27:28;17.55;;;12.40;;
48975;SDS011;34791;52.752;8.346;2023-08-30T12:29:54;16.48;;;11.70;;
48975;SDS011;34791;52.752;8.346;2023-08-30T12:32:19;21.15;;;12.43;;
48975;SDS011;34791;52.752;8.346;2023-08-30T12:34:45;18.63;;;12.60;;
48975;SDS011;34791;52.752;8.346;2023-08-30T12:37:10;23.52;;;12.07;;
48975;SDS011;34791;52.752;8.346;2023-08-30T12:39:35;23.13;;;12.63;;
48975;SDS011;34791;52.752;8.346;2023-08-30T12:42:00;23.20;;;13.88;;
48975;SDS011;34791;52.752;8.346;2023-08-30T12:44:26;19.35;;;12.35;;
48975;SDS011;34791;52.752;8.346;2023-08-30T12:46:51;16.67;;;12.70;;
48975;SDS011;34791;52.752;8.346;2023-08-30T12:49:16;21.67;;;13.38;;
48975;SDS011;34791;52.752;8.346;2023-08-30T12:51:41;19.63;;;13.38;;
48975;SDS011;34791;52.752;8.346;2023-08-30T12:54:07;21.00;;;13.43;;
48975;SDS011;34791;52.752;8.346;2023-08-30T12:56:32;20.10;;;13.68;;
48975;SDS011;34791;52.752;8.346;2023-08-30T12:58:58;22.70;;;13.82;;
48975;SDS011;34791;52.752;8.346;2023-08-30T13:01:23;22.10;;;14.77;;
48975;SDS011;34791;52.752;8.346;2023-08-30T13:03:49;20.55;;;14.23;;
48975;SDS011;34791;52.752;8.346;2023-08-30T13:06:14;25.08;;;15.38;;
48975;SDS011;34791;52.752;8.346;2023-08-30T13:08:39;23.48;;;15.02;;
48975;SDS011;34791;52.752;8.346;2023-08-30T13:11:05;23.55;;;15.55;;
48975;SDS011;34791;52.752;8.346;2023-08-30T13:13:30;23.45;;;15.57;;
48975;SDS011;34791;52.752;8.346;2023-08-30T13:15:55;23.35;;;16.23;;
48975;SDS011;34791;52.752;8.346;2023-08-30T13:18:20;28.55;;;16.90;;
48975;SDS011;34791;52.752;8.346;2023-08-30T13:20:46;23.20;;;16.83;;
48975;SDS011;34791;52.752;8.346;2023-08-30T13:23:11;25.67;;;17.13;;
48975;SDS011;34791;52.752;8.346;2023-08-30T13:25:40;28.23;;;17.60;;
48975;SDS011;34791;52.752;8.346;2023-08-30T13:28:05;25.23;;;15.50;;
48975;SDS011;34791;52.752;8.346;2023-08-30T13:30:31;30.02;;;18.40;;
48975;SDS011;34791;52.752;8.346;2023-08-30T13:32:56;28.27;;;17.40;;
48975;SDS011;34791;52.752;8.346;2023-08-30T13:35:21;29.95;;;19.42;;
48975;SDS011;34791;52.752;8.346;2023-08-30T13:37:46;31.48;;;21.10;;
48975;SDS011;34791;52.752;8.346;2023-08-30T13:40:12;38.00;;;21.27;;
48975;SDS011;34791;52.752;8.346;2023-08-30T13:42:37;29.15;;;20.52;;
48975;SDS011;34791;52.752;8.346;2023-08-30T13:45:02;31.55;;;20.65;;
48975;SDS011;34791;52.752;8.346;2023-08-30T13:47:28;30.00;;;19.67;;
48975;SDS011;34791;52.752;8.346;2023-08-30T13:49:53;27.90;;;19.95;;
48975;SDS011;34791;52.752;8.346;2023-08-30T13:52:18;29.30;;;19.52;;
48975;SDS011;34791;52.752;8.346;2023-08-30T13:54:43;31.35;;;21.20;;
48975;SDS011;34791;52.752;8.346;2023-08-30T13:57:09;30.30;;;21.33;;
48975;SDS011;34791;52.752;8.346;2023-08-30T13:59:34;30.08;;;19.88;;
48975;SDS011;34791;52.752;8.346;2023-08-30T14:02:01;34.40;;;22.45;;
48975;SDS011;34791;52.752;8.346;2023-08-30T14:04:26;34.42;;;22.73;;
48975;SDS011;34791;52.752;8.346;2023-08-30T14:06:51;29.60;;;21.60;;
48975;SDS011;34791;52.752;8.346;2023-08-30T14:09:17;30.80;;;19.98;;
48975;SDS011;34791;52.752;8.346;2023-08-30T14:11:42;25.52;;;17.35;;
48975;SDS011;34791;52.752;8.346;2023-08-30T14:14:08;28.73;;;18.85;;
48975;SDS011;34791;52.752;8.346;2023-08-30T14:16:33;26.52;;;17.48;;
48975;SDS011;34791;52.752;8.346;2023-08-30T14:18:58;24.88;;;17.75;;
48975;SDS011;34791;52.752;8.346;2023-08-30T14:21:30;24.73;;;17.50;;
48975;SDS011;34791;52.752;8.346;2023-08-30T14:23:55;26.98;;;18.10;;
48975;SDS011;34791;52.752;8.346;2023-08-30T14:26:20;26.98;;;18.77;;
48975;SDS011;34791;52.752;8.346;2023-08-30T14:28:46;23.10;;;17.23;;
48975;SDS011;34791;52.752;8.346;2023-08-30T14:31:11;24.88;;;16.63;;